Terminal Aerodrome Forecast
Issued by NWS Pocatello, ID

Home | Current Version | Previous Version | Text Only | Print | Product List | Glossary On
Versions: 1 2 3 4 5 6 7 8 9 10 11 12 13 14 15 16 17
925
FTUS45 KPIH 221129
TAFBYI
TAF
KBYI 221129Z 2212/2312 VRB06KT P6SM VCSH OVC080
     FM221800 29010KT P6SM VCTS SCT050CB BKN080
     FM230300 24007KT P6SM VCSH BKN090=

USA.gov is the U.S. government's official web portal to all federal, state and local government web resources and services.